createdAt,value
2022-11-28T00:05:55.355Z,11388.33058
2022-11-28T00:20:58.006Z,12535.99179
2022-11-28T00:36:00.463Z,12535.99179
2022-11-28T00:51:03.181Z,12535.99179
2022-11-28T01:06:05.808Z,12535.99179
2022-11-28T01:21:08.330Z,12535.99179
2022-11-28T01:36:11.092Z,10235.08194
2022-11-28T01:51:13.501Z,7628.03284
2022-11-28T02:06:15.942Z,7861.11161
2022-11-28T02:21:18.325Z,5829.04278
2022-11-28T02:36:20.955Z,5699.89985
2022-11-28T02:51:23.274Z,4609.12104
2022-11-28T03:06:25.512Z,4609.12104
2022-11-28T03:21:27.947Z,4022.74393
2022-11-28T03:36:30.254Z,4350.50012
2022-11-28T03:51:32.531Z,3651.6134
2022-11-28T04:06:34.772Z,3422.00774
2022-11-28T04:21:37.139Z,3132.26391
2022-11-28T04:36:39.328Z,3109.89059
2022-11-28T04:51:41.548Z,3397.35943
2022-11-28T05:06:44.053Z,3605.09603
2022-11-28T05:21:46.396Z,3845.10919
2022-11-28T05:36:48.752Z,3808.8834
2022-11-28T05:51:51.202Z,3985.91599
2022-11-28T06:06:53.645Z,4149.56062
2022-11-28T06:21:56.799Z,4002.82935
2022-11-28T06:36:59.201Z,3595.93442
2022-11-28T06:52:02.034Z,3528.6788
2022-11-28T07:07:04.718Z,3639.87188
2022-11-28T07:22:07.219Z,4019.88686
2022-11-28T07:37:09.740Z,4031.33953
2022-11-28T07:52:12.006Z,4134.40518
2022-11-28T08:07:14.688Z,4186.39104
2022-11-28T08:22:16.979Z,4217.5862
2022-11-28T08:37:19.229Z,4014.1849
2022-11-28T08:52:21.429Z,4042.85764
2022-11-28T09:07:23.762Z,4134.40518
2022-11-28T09:22:26.048Z,4265.26049
2022-11-28T09:37:28.289Z,4528.00051
2022-11-28T09:52:30.665Z,4590.43036
2022-11-28T10:07:33.128Z,4697.09595
2022-11-28T10:22:35.351Z,4704.90492
2022-11-28T10:37:37.622Z,4900.43342
2022-11-28T10:52:40.021Z,4748.32267
2022-11-28T11:07:42.271Z,4708.81915
2022-11-28T11:22:46.157Z,4845.89093
2022-11-28T11:37:48.478Z,4817.0218
2022-11-28T11:52:50.729Z,5385.34783
2022-11-28T12:07:53.293Z,5631.84135
2022-11-28T12:22:55.662Z,6431.81865
2022-11-28T12:38:10.236Z,6446.46972
2022-11-28T12:53:13.784Z,6643.19296
2022-11-28T13:08:16.270Z,6457.5019
2022-11-28T13:23:18.668Z,5859.21381
2022-11-28T13:38:38.956Z,6543.35308
2022-11-28T13:53:46.674Z,6608.29003
2022-11-28T14:08:50.056Z,6388.26232
2022-11-28T14:23:52.482Z,5805.12876
2022-11-28T14:38:54.930Z,6306.40716
2022-11-28T14:53:57.149Z,7070.58137
2022-11-28T15:08:59.396Z,7536.61833
2022-11-28T15:24:01.638Z,6979.03871
2022-11-28T15:39:03.847Z,6302.89579
2022-11-28T15:54:09.474Z,6479.67992
2022-11-28T16:09:14.384Z,6338.18636
2022-11-28T16:24:16.658Z,5660.00055
2022-11-28T16:39:18.919Z,4879.31087
2022-11-28T16:54:21.157Z,4414.97711
2022-11-28T17:09:23.377Z,4681.55552
2022-11-28T17:24:25.623Z,4597.88841
2022-11-28T17:39:27.811Z,4408.1002
2022-11-28T17:54:29.992Z,4760.30329
2022-11-28T18:09:32.218Z,5231.05414
2022-11-28T18:24:34.691Z,5598.41796
2022-11-28T18:39:37.039Z,5637.45075
2022-11-28T18:54:39.398Z,5711.40318
2022-11-28T19:09:41.969Z,6302.89579
2022-11-28T19:24:44.400Z,6585.22444
2022-11-28T19:39:46.761Z,6910.86739
2022-11-28T19:54:49.142Z,6494.5501
2022-11-28T20:09:51.456Z,5349.71699
2022-11-28T20:24:53.659Z,5211.78691
2022-11-28T20:39:55.963Z,4557.16638
2022-11-28T20:54:58.267Z,4689.31286
2022-11-28T21:10:00.503Z,4281.39234
2022-11-28T21:25:02.892Z,4014.1849
2022-11-28T21:40:05.102Z,4233.35877
2022-11-28T21:55:07.482Z,4654.60578
2022-11-28T22:10:09.706Z,5080.79048
2022-11-28T22:25:11.970Z,6309.92243
2022-11-28T22:40:14.375Z,5793.24518
2022-11-28T22:55:16.602Z,6682.40898
2022-11-28T23:10:19.141Z,7844.76834
2022-11-28T23:25:21.352Z,8498.49901
2022-11-28T23:40:23.696Z,8748.06852
2022-11-28T23:55:25.904Z,8885.40084
